Time;durP1;ratioP1;P1;durP2;ratioP2;P2;SDS_P1;SDS_P2;PMS_P1;PMS_P2;Temp;Humidity;BMP_temperature;BMP_pressure;BME280_temperature;BME280_humidity;BME280_pressure;Samples;Min_cycle;Max_cycle;Signal;HPM_P1;HPM_P2
2022/03/15 09:16:57;;;;;;;42.92;28.50;;;9.10;99.90;;;;;;6256741;22;20520;-83
2022/03/15 09:23:12;;;;;;;40.00;28.80;;;8.90;99.90;;;;;;6062280;23;20181;-86
2022/03/15 09:29:26;;;;;;;35.38;25.38;;;9.40;99.90;;;;;;6133683;23;20197;-83
2022/03/15 09:32:10;;;;;;;38.47;27.13;;;9.60;99.90;;;;;;6125788;23;20193;-84
2022/03/15 09:34:52;;;;;;;34.10;25.98;;;9.80;99.90;;;;;;6227537;23;20308;-85
2022/03/15 09:37:22;;;;;;;39.22;26.85;;;10.10;99.90;;;;;;6254966;23;20242;-84
2022/03/15 09:40:15;;;;;;;37.85;26.65;;;10.10;99.90;;;;;;6252860;23;20712;-83
2022/03/15 09:42:48;;;;;;;37.65;26.67;;;10.00;99.90;;;;;;6250920;23;20175;-82
2022/03/15 10:05:12;;;;;;;35.42;24.48;;;11.50;99.90;;;;;;6105923;23;20179;-83
2022/03/15 11:08:58;;;;;;;34.40;26.88;;;13.70;99.90;;;;;;6159625;22;20264;-74
2022/03/15 11:11:31;;;;;;;30.63;23.90;;;13.80;99.90;;;;;;6242293;23;20167;-74
2022/03/15 11:14:07;;;;;;;28.00;22.45;;;13.80;99.90;;;;;;6242502;22;20202;-74
2022/03/15 11:16:39;;;;;;;26.10;21.27;;;14.00;99.90;;;;;;6244207;23;20167;-73
2022/03/15 11:19:39;;;;;;;33.22;23.92;;;14.00;99.90;;;;;;6246823;23;20246;-72
2022/03/15 11:22:07;;;;;;;27.35;20.58;;;14.10;99.90;;;;;;6246479;23;20164;-72
2022/03/15 11:24:42;;;;;;;29.50;21.70;;;14.10;99.90;;;;;;6244477;22;20673;-71
2022/03/15 11:27:14;;;;;;;35.65;26.08;;;14.20;99.90;;;;;;6243332;23;20173;-72
2022/03/15 11:29:43;;;;;;;34.95;23.38;;;14.10;99.90;;;;;;6240965;23;20208;-72
2022/03/15 11:32:13;;;;;;;31.27;23.45;;;14.10;99.90;;;;;;6241001;23;20241;-72
2022/03/15 11:34:42;;;;;;;29.70;22.80;;;14.10;99.90;;;;;;6242086;22;20202;-73
2022/03/15 11:37:11;;;;;;;31.58;24.02;;;14.20;99.90;;;;;;6240773;23;20158;-72
2022/03/15 11:39:41;;;;;;;31.98;24.27;;;14.30;99.90;;;;;;6237888;22;20187;-73
2022/03/15 11:42:11;;;;;;;35.08;25.25;;;14.30;99.90;;;;;;6238659;23;20174;-72
2022/03/15 11:44:52;;;;;;;35.45;25.02;;;14.40;99.90;;;;;;6240147;22;20195;-71
2022/03/15 11:47:33;;;;;;;33.80;23.70;;;14.40;99.90;;;;;;6240867;23;20262;-71
2022/03/15 11:50:06;;;;;;;34.15;23.95;;;14.30;99.90;;;;;;6237828;23;20190;-72
2022/03/15 11:52:43;;;;;;;28.50;21.63;;;14.50;99.90;;;;;;6239325;23;20163;-71
2022/03/15 11:55:20;;;;;;;36.40;24.58;;;14.20;99.90;;;;;;6239847;22;20206;-70
2022/03/15 11:57:51;;;;;;;35.30;23.77;;;14.30;99.90;;;;;;6237400;23;20167;-72
2022/03/15 12:00:31;;;;;;;37.72;26.52;;;14.40;99.90;;;;;;6239510;23;20159;-71
2022/03/15 12:03:00;;;;;;;35.80;26.05;;;14.40;99.90;;;;;;6237913;22;20191;-71
2022/03/15 12:05:27;;;;;;;33.15;24.35;;;14.30;99.90;;;;;;6238838;23;20163;-74
2022/03/15 12:08:12;;;;;;;39.10;24.75;;;14.40;99.90;;;;;;6240270;23;20166;-74
2022/03/15 12:10:47;;;;;;;37.80;28.27;;;14.40;99.90;;;;;;6238822;23;20170;-74
2022/03/15 12:13:15;;;;;;;32.45;25.60;;;14.30;99.90;;;;;;6238450;22;20490;-73
2022/03/15 12:15:45;;;;;;;33.45;24.85;;;14.20;99.90;;;;;;6240382;23;20163;-73
2022/03/15 12:18:27;;;;;;;34.33;25.50;;;14.20;99.90;;;;;;6239944;23;20257;-76
2022/03/15 12:21:03;;;;;;;32.83;25.25;;;14.30;99.90;;;;;;6239410;22;20196;-76
2022/03/15 12:23:39;;;;;;;37.22;25.83;;;14.40;99.90;;;;;;6239718;22;20506;-74
2022/03/15 12:26:21;;;;;;;31.33;24.40;;;14.50;99.90;;;;;;6240600;22;20169;-75
2022/03/15 12:28:56;;;;;;;40.72;27.38;;;14.50;99.90;;;;;;6236801;23;20198;-73
2022/03/15 12:31:37;;;;;;;33.97;26.88;;;14.60;99.90;;;;;;6238551;23;20163;-74
2022/03/15 12:34:05;;;;;;;37.03;24.88;;;14.70;99.90;;;;;;6238309;22;20507;-72
2022/03/15 12:36:46;;;;;;;32.22;24.17;;;14.80;99.90;;;;;;6239679;23;20242;-71
2022/03/15 12:39:15;;;;;;;34.83;26.95;;;14.80;99.90;;;;;;6238329;22;20178;-72
2022/03/15 12:41:46;;;;;;;33.33;25.83;;;14.70;99.90;;;;;;6238390;22;20195;-72
2022/03/15 12:44:14;;;;;;;43.65;28.80;;;14.60;99.90;;;;;;6238500;22;20670;-72
2022/03/15 12:46:43;;;;;;;37.88;26.60;;;14.40;99.90;;;;;;6238495;23;20174;-72
2022/03/15 12:49:13;;;;;;;32.17;26.17;;;14.40;99.90;;;;;;6238890;23;20221;-72
2022/03/15 12:51:43;;;;;;;37.22;25.52;;;14.50;99.90;;;;;;6236689;23;20175;-72
2022/03/15 12:54:11;;;;;;;37.22;25.17;;;14.50;99.90;;;;;;6238431;22;20241;-72
2022/03/15 12:56:45;;;;;;;38.03;25.48;;;14.60;99.90;;;;;;6238421;23;20543;-73
2022/03/15 12:59:21;;;;;;;36.75;26.20;;;14.60;99.90;;;;;;6237914;23;20167;-71
2022/03/15 13:01:49;;;;;;;35.38;26.98;;;14.70;99.90;;;;;;6238934;23;20197;-74
2022/03/15 13:04:16;;;;;;;35.05;26.25;;;14.80;99.90;;;;;;6239666;22;20199;-74
2022/03/15 13:06:45;;;;;;;35.35;26.02;;;14.80;99.90;;;;;;6239624;22;20172;-74
2022/03/15 13:09:22;;;;;;;28.35;22.83;;;14.90;99.90;;;;;;6238422;23;20191;-74
2022/03/15 13:11:51;;;;;;;32.22;24.35;;;15.20;99.90;;;;;;6239687;23;20240;-73
2022/03/15 13:14:23;;;;;;;33.45;26.02;;;15.20;99.90;;;;;;6241477;22;20200;-73
2022/03/15 13:16:50;;;;;;;35.05;26.52;;;15.20;99.90;;;;;;6247691;23;20210;-74
2022/03/15 13:19:26;;;;;;;37.70;23.48;;;15.40;99.90;;;;;;6244055;23;20624;-74
2022/03/15 13:21:53;;;;;;;33.00;24.58;;;15.60;99.90;;;;;;6239397;23;20166;-72
2022/03/15 13:24:23;;;;;;;32.40;24.40;;;15.50;99.90;;;;;;6240305;22;20286;-72
2022/03/15 13:26:57;;;;;;;29.65;21.80;;;15.40;99.90;;;;;;6240103;22;20163;-74
2022/03/15 13:29:28;;;;;;;31.67;24.77;;;15.60;99.90;;;;;;6239969;23;20169;-73
2022/03/15 13:31:58;;;;;;;27.48;22.83;;;15.60;99.90;;;;;;6239251;23;20660;-74
2022/03/15 13:34:27;;;;;;;27.60;23.65;;;15.40;99.90;;;;;;6239242;22;20259;-72
2022/03/15 13:37:04;;;;;;;33.35;23.65;;;15.40;99.90;;;;;;6240018;22;20182;-72
2022/03/15 13:39:31;;;;;;;29.52;21.42;;;15.40;99.90;;;;;;6238487;23;20246;-72
2022/03/15 13:42:01;;;;;;;32.88;22.98;;;15.40;99.90;;;;;;6239302;22;20194;-71
2022/03/15 13:44:30;;;;;;;35.38;24.40;;;15.50;99.90;;;;;;6238064;22;20217;-74
2022/03/15 13:47:03;;;;;;;32.45;22.98;;;15.40;99.90;;;;;;6238772;23;20461;-74
2022/03/15 13:49:31;;;;;;;28.95;23.75;;;15.40;99.90;;;;;;6236623;23;20160;-72
2022/03/15 13:52:04;;;;;;;30.45;23.70;;;15.50;99.90;;;;;;6238760;23;20247;-74
2022/03/15 13:54:31;;;;;;;33.70;23.45;;;15.60;99.90;;;;;;6238762;22;20536;-73
2022/03/15 13:57:04;;;;;;;34.95;23.65;;;15.50;99.90;;;;;;6238931;23;20165;-73
2022/03/15 13:59:31;;;;;;;35.40;25.42;;;15.30;99.90;;;;;;6239516;23;20175;-74
2022/03/15 14:02:00;;;;;;;36.83;22.55;;;15.20;99.90;;;;;;6239545;23;20244;-74
2022/03/15 14:04:29;;;;;;;34.92;21.55;;;15.30;99.90;;;;;;6240677;22;20252;-73
2022/03/15 14:07:01;;;;;;;28.85;23.10;;;15.20;99.90;;;;;;6241961;23;20166;-75
2022/03/15 14:09:29;;;;;;;32.42;21.65;;;15.00;99.90;;;;;;6241576;23;20182;-73
2022/03/15 14:12:14;;;;;;;33.50;24.75;;;15.00;99.90;;;;;;6241358;23;20190;-74
2022/03/15 14:14:49;;;;;;;32.35;22.50;;;15.10;99.90;;;;;;6238976;22;20238;-75
2022/03/15 14:17:17;;;;;;;37.63;23.80;;;14.90;99.90;;;;;;6242583;23;20183;-72
2022/03/15 14:19:47;;;;;;;36.75;22.65;;;14.70;99.90;;;;;;6244517;23;20204;-73
2022/03/15 14:22:18;;;;;;;30.85;22.23;;;14.80;99.90;;;;;;6244471;22;20211;-73
2022/03/15 14:24:46;;;;;;;26.63;19.63;;;14.90;99.90;;;;;;6245074;22;20195;-73
2022/03/15 14:27:17;;;;;;;30.48;20.17;;;15.10;99.90;;;;;;6247469;23;20170;-71
2022/03/15 14:29:49;;;;;;;38.50;22.77;;;15.10;99.90;;;;;;6240434;22;20180;-74
2022/03/15 14:32:17;;;;;;;30.20;20.50;;;15.20;99.90;;;;;;6241106;22;20171;-74
2022/03/15 14:34:58;;;;;;;28.92;21.02;;;15.20;99.90;;;;;;6240224;22;20201;-71
2022/03/15 14:37:28;;;;;;;27.35;21.52;;;15.20;99.90;;;;;;6241521;23;20160;-72
2022/03/15 14:40:03;;;;;;;37.78;23.88;;;15.20;99.90;;;;;;6240171;23;20164;-73
2022/03/15 14:42:34;;;;;;;34.05;23.67;;;15.10;99.90;;;;;;6212581;23;20174;-74
2022/03/15 14:45:09;;;;;;;35.67;23.63;;;15.00;99.90;;;;;;6240208;22;20195;-72
2022/03/15 14:47:36;;;;;;;34.08;21.88;;;15.00;99.90;;;;;;6241485;23;20166;-73
2022/03/15 14:50:05;;;;;;;33.63;22.88;;;15.10;99.90;;;;;;6239502;23;20170;-74
2022/03/15 14:52:33;;;;;;;27.77;20.40;;;15.10;99.90;;;;;;6240463;23;20601;-75
2022/03/15 14:55:01;;;;;;;32.15;23.17;;;15.10;99.90;;;;;;6239862;22;20201;-72
2022/03/15 14:57:29;;;;;;;33.50;22.08;;;15.20;99.90;;;;;;6241405;23;20202;-73
2022/03/15 14:59:58;;;;;;;34.25;22.13;;;15.10;99.90;;;;;;6240521;22;20163;-73
2022/03/15 15:02:27;;;;;;;34.28;24.73;;;15.10;99.90;;;;;;6241369;23;20196;-74
2022/03/15 15:04:55;;;;;;;29.98;20.80;;;15.10;99.90;;;;;;6241306;22;20197;-73
2022/03/15 15:07:23;;;;;;;29.20;21.48;;;15.00;99.90;;;;;;6242580;23;20172;-72
2022/03/15 15:09:51;;;;;;;34.10;23.85;;;15.00;99.90;;;;;;6246076;23;20191;-71
2022/03/15 15:12:20;;;;;;;33.17;25.00;;;15.00;99.90;;;;;;6250392;23;20418;-74
2022/03/15 15:14:51;;;;;;;31.73;22.90;;;14.80;99.90;;;;;;6239199;22;20248;-71
2022/03/15 15:17:22;;;;;;;33.33;23.63;;;14.80;99.90;;;;;;6240773;23;20220;-70
2022/03/15 15:19:53;;;;;;;33.35;24.10;;;14.70;99.90;;;;;;6240431;22;20174;-72
2022/03/15 15:22:21;;;;;;;35.95;23.55;;;14.60;99.90;;;;;;6241692;23;20245;-74
2022/03/15 15:24:54;;;;;;;35.78;24.63;;;14.60;99.90;;;;;;6239676;22;20195;-72
2022/03/15 15:27:24;;;;;;;32.83;23.15;;;14.50;99.90;;;;;;6242389;23;20171;-74
2022/03/15 15:29:53;;;;;;;33.38;23.92;;;14.50;99.90;;;;;;6241480;23;20524;-71
2022/03/15 15:32:22;;;;;;;30.85;23.23;;;14.50;99.90;;;;;;6241024;23;20210;-73
2022/03/15 15:34:51;;;;;;;41.45;26.95;;;14.50;99.90;;;;;;6240738;22;20199;-72
2022/03/15 15:37:18;;;;;;;37.65;26.92;;;14.50;99.90;;;;;;6241190;23;20217;-75
2022/03/15 15:40:02;;;;;;;39.28;25.60;;;14.30;99.90;;;;;;6241451;23;20594;-75
2022/03/15 15:42:29;;;;;;;41.38;26.83;;;14.20;99.90;;;;;;6242460;23;20501;-75
2022/03/15 15:45:19;;;;;;;40.08;27.77;;;14.20;99.90;;;;;;6239215;22;20224;-72
2022/03/15 15:47:48;;;;;;;38.00;26.33;;;14.10;99.90;;;;;;6241580;23;20517;-72
2022/03/15 15:50:17;;;;;;;44.35;28.30;;;14.00;99.90;;;;;;6247739;23;20168;-70
2022/03/15 15:52:46;;;;;;;40.03;27.63;;;13.80;99.90;;;;;;6247694;23;20247;-73
2022/03/15 15:55:16;;;;;;;36.50;24.33;;;13.80;99.90;;;;;;6243414;22;20203;-71
2022/03/15 15:57:44;;;;;;;35.85;23.77;;;13.70;99.90;;;;;;6240211;22;20174;-72
2022/03/15 16:00:14;;;;;;;41.03;25.30;;;13.70;99.90;;;;;;6239290;23;20167;-73
2022/03/15 16:02:42;;;;;;;34.70;25.48;;;13.70;99.90;;;;;;6239810;23;20182;-72
2022/03/15 16:05:13;;;;;;;39.95;27.30;;;13.60;99.90;;;;;;6239501;22;20278;-70
2022/03/15 16:07:45;;;;;;;38.33;24.80;;;13.50;99.90;;;;;;6239692;23;20165;-73
2022/03/15 16:10:15;;;;;;;37.28;24.02;;;13.50;99.90;;;;;;6239027;23;20163;-70
2022/03/15 16:12:42;;;;;;;33.45;23.98;;;13.40;99.90;;;;;;6239356;23;20171;-73
2022/03/15 16:15:13;;;;;;;36.60;24.48;;;13.40;99.90;;;;;;6239757;22;20543;-72
2022/03/15 16:17:40;;;;;;;35.17;24.05;;;13.40;99.90;;;;;;6239045;23;20167;-70
2022/03/15 16:20:11;;;;;;;32.00;20.95;;;13.50;99.90;;;;;;6238309;23;20198;-72
2022/03/15 16:22:39;;;;;;;27.13;20.00;;;13.40;99.90;;;;;;6239927;22;20166;-72
2022/03/15 16:25:07;;;;;;;33.90;20.33;;;13.40;99.90;;;;;;6239449;22;20195;-71
2022/03/15 16:27:34;;;;;;;34.90;18.85;;;13.40;99.90;;;;;;6235568;23;20255;-70
2022/03/15 16:30:01;;;;;;;31.90;19.42;;;13.50;99.90;;;;;;6236929;23;20166;-71
2022/03/15 16:32:29;;;;;;;31.80;18.00;;;13.40;99.90;;;;;;6237663;23;20227;-70
2022/03/15 16:34:57;;;;;;;30.42;18.02;;;13.40;99.90;;;;;;6237576;22;20705;-70
2022/03/15 16:37:27;;;;;;;26.95;16.52;;;13.40;99.90;;;;;;6238419;22;20605;-70
2022/03/15 16:39:54;;;;;;;25.63;16.20;;;13.30;99.90;;;;;;6237366;23;20202;-69
2022/03/15 16:42:24;;;;;;;22.88;15.40;;;13.30;99.90;;;;;;6237717;23;20427;-71
2022/03/15 16:44:51;;;;;;;21.27;13.60;;;13.30;99.90;;;;;;6238395;22;20223;-68
2022/03/15 16:47:18;;;;;;;21.33;15.23;;;13.20;99.90;;;;;;6237240;23;20258;-71
2022/03/15 16:49:46;;;;;;;18.70;10.90;;;13.10;99.90;;;;;;6237218;23;20191;-74
2022/03/15 16:52:14;;;;;;;15.93;9.82;;;13.00;99.90;;;;;;6238014;23;20624;-72
2022/03/15 16:54:48;;;;;;;13.98;10.15;;;13.00;99.90;;;;;;6237811;22;20201;-70
2022/03/15 16:57:15;;;;;;;17.80;9.40;;;13.00;99.90;;;;;;6236062;23;20186;-72
2022/03/15 16:59:45;;;;;;;18.98;10.80;;;12.90;99.90;;;;;;6237439;23;20209;-70
2022/03/15 17:02:12;;;;;;;16.90;10.35;;;12.80;99.90;;;;;;6237711;23;20259;-71
2022/03/15 17:07:24;;;;;;;15.88;9.65;;;12.70;99.90;;;;;;6237031;23;20160;-72
2022/03/15 17:09:53;;;;;;;15.98;10.50;;;12.70;99.90;;;;;;6236434;23;20202;-72
2022/03/15 17:12:20;;;;;;;15.32;8.55;;;12.70;99.90;;;;;;6237838;23;20206;-69
2022/03/15 17:14:49;;;;;;;17.70;10.82;;;12.60;99.90;;;;;;6237048;22;20209;-68
2022/03/15 17:17:17;;;;;;;13.90;8.88;;;12.50;99.90;;;;;;6236246;23;20462;-68
2022/03/15 17:19:47;;;;;;;13.57;8.57;;;12.50;99.90;;;;;;6237987;23;20166;-73
2022/03/15 17:22:16;;;;;;;21.45;8.50;;;12.50;99.90;;;;;;6238562;23;20496;-73
2022/03/15 17:24:45;;;;;;;12.50;8.55;;;12.30;99.90;;;;;;6238144;22;20205;-75
2022/03/15 17:27:17;;;;;;;12.00;7.13;;;12.20;99.90;;;;;;6241412;23;20204;-75
2022/03/15 17:29:46;;;;;;;15.43;8.60;;;12.20;99.90;;;;;;6247277;23;20187;-73
2022/03/15 17:32:14;;;;;;;13.60;7.85;;;12.10;99.90;;;;;;6245762;23;20170;-74
2022/03/15 17:34:43;;;;;;;13.45;9.30;;;12.10;99.90;;;;;;6239893;22;20274;-76
2022/03/15 17:37:19;;;;;;;12.05;7.18;;;11.90;99.90;;;;;;6239472;22;20176;-73
2022/03/15 17:39:48;;;;;;;9.07;7.07;;;12.00;99.90;;;;;;6237666;23;20226;-74
2022/03/15 17:42:19;;;;;;;10.93;7.00;;;11.90;99.90;;;;;;6241605;23;20170;-76
2022/03/15 17:44:48;;;;;;;10.90;7.47;;;11.90;99.90;;;;;;6246197;22;20592;-72
2022/03/15 17:47:17;;;;;;;11.05;6.45;;;11.80;99.90;;;;;;6246420;22;20260;-72
2022/03/15 17:49:46;;;;;;;10.32;7.78;;;11.70;99.90;;;;;;6244934;23;20521;-70
2022/03/15 17:52:14;;;;;;;7.90;6.18;;;11.70;99.90;;;;;;6245340;23;20168;-71
2022/03/15 17:54:45;;;;;;;18.20;6.93;;;11.60;99.90;;;;;;6245899;22;20205;-74
2022/03/15 17:57:17;;;;;;;7.70;5.55;;;11.60;99.90;;;;;;6245653;23;20165;-76
2022/03/15 17:59:47;;;;;;;6.63;5.50;;;11.60;99.90;;;;;;6245860;23;20197;-74
2022/03/15 18:02:16;;;;;;;8.38;6.10;;;11.60;99.90;;;;;;6245965;23;20452;-72
2022/03/15 18:04:43;;;;;;;9.20;6.20;;;11.60;99.90;;;;;;6245247;22;20201;-72
2022/03/15 18:07:13;;;;;;;10.45;6.82;;;11.60;99.90;;;;;;6244766;22;20164;-76
2022/03/15 18:09:40;;;;;;;10.75;6.32;;;11.60;99.90;;;;;;6245043;23;20240;-75
2022/03/15 18:12:07;;;;;;;8.73;6.63;;;11.50;99.90;;;;;;6249757;23;20172;-77
2022/03/15 18:14:41;;;;;;;10.13;5.95;;;11.40;99.90;;;;;;6250241;22;20275;-77
2022/03/15 18:17:15;;;;;;;8.80;6.38;;;11.40;99.90;;;;;;6251563;23;20219;-78
2022/03/15 18:19:42;;;;;;;6.93;4.75;;;11.30;99.90;;;;;;6227201;23;20259;-76
2022/03/15 18:22:10;;;;;;;13.88;6.32;;;11.30;99.90;;;;;;6254653;22;20166;-75
2022/03/15 18:24:38;;;;;;;9.00;5.93;;;11.30;99.90;;;;;;6257446;22;20209;-73
2022/03/15 18:27:10;;;;;;;8.77;6.10;;;11.20;99.90;;;;;;6256838;23;20215;-76
2022/03/15 18:29:37;;;;;;;12.63;7.90;;;11.20;99.90;;;;;;6247516;23;20262;-78
2022/03/15 18:32:06;;;;;;;10.85;7.53;;;11.20;99.90;;;;;;6247157;23;20198;-75
2022/03/15 18:34:35;;;;;;;12.30;8.73;;;11.10;99.90;;;;;;6247309;22;20266;-73
2022/03/15 18:37:02;;;;;;;12.38;8.10;;;11.00;99.90;;;;;;6246478;23;20244;-74
2022/03/15 18:39:30;;;;;;;13.82;8.52;;;11.00;99.90;;;;;;6245279;23;20175;-75
2022/03/15 18:41:59;;;;;;;16.95;9.43;;;10.90;99.90;;;;;;6246973;23;20537;-73
2022/03/15 18:44:28;;;;;;;19.45;10.85;;;10.80;99.90;;;;;;6246205;22;20276;-76
2022/03/15 18:46:56;;;;;;;15.95;9.60;;;10.80;99.90;;;;;;6246382;22;20198;-71
2022/03/15 18:49:25;;;;;;;15.52;8.93;;;10.70;99.90;;;;;;6247502;23;20196;-73
2022/03/15 18:51:53;;;;;;;19.63;9.10;;;10.70;99.90;;;;;;6247616;23;20194;-72
2022/03/15 18:54:22;;;;;;;14.25;9.27;;;10.70;99.90;;;;;;6248649;22;20199;-75
2022/03/15 18:56:50;;;;;;;18.70;11.38;;;10.70;99.90;;;;;;6248586;22;20188;-78
2022/03/15 18:59:30;;;;;;;18.08;11.00;;;10.60;99.90;;;;;;6248908;23;20670;-77
2022/03/15 19:01:59;;;;;;;19.35;13.20;;;10.60;99.90;;;;;;6248243;23;20642;-74
2022/03/15 19:04:28;;;;;;;18.48;11.15;;;10.60;99.90;;;;;;6248844;22;20282;-74
2022/03/15 19:06:58;;;;;;;15.05;10.35;;;10.60;99.90;;;;;;6248275;23;20235;-72
2022/03/15 19:09:25;;;;;;;19.33;11.35;;;10.50;99.90;;;;;;6249288;23;20183;-76
2022/03/15 19:11:52;;;;;;;18.90;10.93;;;10.40;99.90;;;;;;6247812;23;20217;-75
2022/03/15 19:14:19;;;;;;;19.33;12.52;;;10.40;99.90;;;;;;6245717;22;20544;-73
2022/03/15 19:16:47;;;;;;;21.45;13.10;;;10.20;99.90;;;;;;6246027;23;20220;-73
2022/03/15 19:19:14;;;;;;;22.52;13.63;;;10.10;99.90;;;;;;6248611;23;20175;-75
2022/03/15 19:21:43;;;;;;;24.75;12.32;;;10.00;99.90;;;;;;6253174;23;20164;-74
2022/03/15 19:24:12;;;;;;;19.20;12.43;;;10.00;99.90;;;;;;6256951;22;21009;-76
2022/03/15 19:26:40;;;;;;;24.15;13.10;;;9.90;99.90;;;;;;6246880;23;20160;-75
2022/03/15 19:29:08;;;;;;;17.67;12.05;;;9.90;99.90;;;;;;6246826;23;20170;-77
2022/03/15 19:31:38;;;;;;;19.85;11.60;;;9.90;99.90;;;;;;6247172;23;20210;-74
2022/03/15 19:34:06;;;;;;;15.77;11.07;;;9.90;99.90;;;;;;6248114;22;20206;-77
2022/03/15 19:36:33;;;;;;;23.73;12.38;;;9.90;99.90;;;;;;6245896;23;20233;-75
2022/03/15 19:39:00;;;;;;;22.00;11.95;;;9.90;99.90;;;;;;6247233;23;20237;-74
2022/03/15 19:41:29;;;;;;;18.55;12.88;;;9.90;99.90;;;;;;6246564;23;20163;-74
2022/03/15 19:43:58;;;;;;;22.02;13.88;;;10.00;99.90;;;;;;6247244;22;20199;-76
2022/03/15 19:46:26;;;;;;;22.58;14.48;;;9.90;99.90;;;;;;6245654;23;20178;-77
2022/03/15 19:48:54;;;;;;;28.00;15.85;;;9.90;99.90;;;;;;6248137;22;20164;-75
2022/03/15 19:51:21;;;;;;;23.05;15.60;;;9.90;99.90;;;;;;6246972;23;20213;-78
2022/03/15 19:53:49;;;;;;;23.45;15.07;;;9.90;99.90;;;;;;6247755;22;20213;-77
2022/03/15 19:56:17;;;;;;;27.83;15.35;;;9.90;99.90;;;;;;6247501;23;20219;-75
2022/03/15 19:58:46;;;;;;;25.58;16.30;;;9.90;99.90;;;;;;6247331;23;20609;-75
2022/03/15 20:01:15;;;;;;;26.02;15.75;;;10.00;99.90;;;;;;6246635;23;20198;-75
2022/03/15 20:03:45;;;;;;;30.05;18.05;;;10.00;99.90;;;;;;6247467;22;20199;-74
2022/03/15 20:06:13;;;;;;;24.80;15.25;;;10.00;99.90;;;;;;6248015;23;20218;-74
2022/03/15 20:08:47;;;;;;;32.58;19.58;;;10.00;99.90;;;;;;6247830;23;20197;-72
2022/03/15 20:11:15;;;;;;;29.67;17.60;;;10.10;99.90;;;;;;6245766;22;20190;-76
2022/03/15 20:13:42;;;;;;;26.55;17.40;;;10.00;99.90;;;;;;6246482;22;20199;-74
2022/03/15 20:16:10;;;;;;;22.58;16.23;;;10.00;99.90;;;;;;6248241;23;20206;-73
2022/03/15 20:18:38;;;;;;;22.15;15.02;;;10.10;99.90;;;;;;6246859;22;20187;-74
2022/03/15 20:21:07;;;;;;;25.95;16.38;;;9.90;99.90;;;;;;6248043;22;20163;-76
2022/03/15 20:23:34;;;;;;;21.02;15.65;;;10.10;99.90;;;;;;6248203;22;20229;-75
2022/03/15 20:26:02;;;;;;;24.48;16.85;;;10.10;99.90;;;;;;6248468;23;20155;-73
2022/03/15 20:28:30;;;;;;;32.05;17.77;;;10.10;99.90;;;;;;6248921;23;20187;-75
2022/03/15 20:31:03;;;;;;;22.40;16.25;;;10.10;99.90;;;;;;6246962;22;20191;-74
2022/03/15 20:33:33;;;;;;;26.63;16.20;;;10.10;99.90;;;;;;6245961;22;20784;-73
2022/03/15 20:36:00;;;;;;;20.67;14.57;;;10.10;99.90;;;;;;6245650;23;20179;-74
2022/03/15 20:38:29;;;;;;;24.23;17.52;;;10.10;99.90;;;;;;6246407;23;20167;-74
2022/03/15 20:40:56;;;;;;;26.33;17.02;;;10.10;99.90;;;;;;6246148;23;20594;-76
2022/03/15 20:46:10;;;;;;;22.52;15.60;;;10.00;99.90;;;;;;6249192;23;20198;-74
2022/03/15 20:48:39;;;;;;;22.38;15.55;;;10.00;99.90;;;;;;6248594;23;20676;-73
2022/03/15 20:51:08;;;;;;;25.77;15.60;;;10.00;99.90;;;;;;6247470;23;20165;-71
2022/03/15 20:53:43;;;;;;;21.60;15.85;;;10.00;99.90;;;;;;6247860;22;20520;-73
2022/03/15 20:56:11;;;;;;;20.42;14.00;;;10.00;99.90;;;;;;6247261;23;20244;-75
2022/03/15 20:58:40;;;;;;;23.17;13.77;;;9.90;99.90;;;;;;6250124;23;20167;-75
2022/03/15 21:01:09;;;;;;;17.85;12.88;;;10.00;99.90;;;;;;6245979;22;20163;-74
2022/03/15 21:03:36;;;;;;;24.05;14.07;;;10.00;99.90;;;;;;6246908;22;20203;-75
2022/03/15 21:06:08;;;;;;;14.57;12.77;;;10.00;99.90;;;;;;6246545;23;20159;-74
2022/03/15 21:08:36;;;;;;;24.27;15.07;;;10.00;99.90;;;;;;6247901;23;20164;-75
2022/03/15 21:11:04;;;;;;;20.88;14.10;;;10.00;99.90;;;;;;6252903;23;20238;-73
2022/03/15 21:13:35;;;;;;;20.33;12.50;;;10.10;99.90;;;;;;6260528;22;20206;-75
2022/03/15 21:16:03;;;;;;;18.77;13.27;;;10.00;99.90;;;;;;6248643;23;20190;-74
2022/03/15 21:18:33;;;;;;;15.93;12.82;;;10.00;99.90;;;;;;6247421;23;20165;-75
2022/03/15 21:21:03;;;;;;;20.33;13.48;;;10.00;99.90;;;;;;6249123;23;20196;-76
2022/03/15 21:23:36;;;;;;;17.45;11.20;;;10.10;99.90;;;;;;6252042;22;20203;-74
2022/03/15 21:26:05;;;;;;;14.52;10.60;;;10.00;99.90;;;;;;6255681;23;20166;-72
2022/03/15 21:28:32;;;;;;;20.80;12.35;;;10.00;99.90;;;;;;6255815;23;20163;-74
2022/03/15 21:31:00;;;;;;;17.27;11.82;;;9.90;99.90;;;;;;6257826;23;20176;-75
2022/03/15 21:33:27;;;;;;;13.45;10.40;;;9.90;99.90;;;;;;6256755;22;20222;-76
2022/03/15 21:35:54;;;;;;;11.73;10.00;;;9.80;99.90;;;;;;6250238;23;20191;-75
2022/03/15 21:38:26;;;;;;;12.48;9.43;;;9.80;99.90;;;;;;6247135;23;20191;-77
2022/03/15 21:40:55;;;;;;;12.77;10.52;;;9.80;99.90;;;;;;6245954;23;20165;-73
2022/03/15 21:43:22;;;;;;;18.27;9.48;;;9.80;99.90;;;;;;6246239;22;20199;-73
2022/03/15 21:45:50;;;;;;;15.95;10.65;;;9.70;99.90;;;;;;6246230;23;20183;-74
2022/03/15 21:48:18;;;;;;;12.70;9.40;;;9.70;99.90;;;;;;6246509;23;20163;-73
2022/03/15 21:50:47;;;;;;;18.42;10.05;;;9.60;99.90;;;;;;6245372;23;20166;-73
2022/03/15 21:53:32;;;;;;;13.30;9.52;;;9.60;99.90;;;;;;6245890;22;20199;-75
2022/03/15 21:56:00;;;;;;;12.68;8.73;;;9.50;99.90;;;;;;6246625;23;20574;-72
2022/03/15 21:58:54;;;;;;;11.88;9.18;;;9.50;99.90;;;;;;6245901;23;20159;-72
2022/03/15 22:01:22;;;;;;;14.88;9.20;;;9.40;99.90;;;;;;6245075;23;20247;-74
2022/03/15 22:03:49;;;;;;;13.63;9.57;;;9.40;99.90;;;;;;6245464;22;20194;-73
2022/03/15 22:06:17;;;;;;;13.68;8.75;;;9.40;99.90;;;;;;6246408;23;20217;-75
2022/03/15 22:08:45;;;;;;;10.65;8.23;;;9.50;99.90;;;;;;6247058;23;20187;-78
2022/03/15 22:11:14;;;;;;;14.13;9.65;;;9.50;99.90;;;;;;6245839;23;20195;-74
2022/03/15 22:13:42;;;;;;;15.23;7.60;;;9.60;99.90;;;;;;6246674;22;20252;-75
2022/03/15 22:16:11;;;;;;;11.68;8.25;;;9.50;99.90;;;;;;6246708;23;20183;-76
2022/03/15 22:18:38;;;;;;;14.43;8.77;;;9.60;99.90;;;;;;6245107;23;20197;-73
2022/03/15 22:21:06;;;;;;;11.35;7.95;;;9.70;99.90;;;;;;6244584;23;20241;-74
2022/03/15 22:23:35;;;;;;;17.42;9.85;;;9.70;99.90;;;;;;6245390;22;20235;-76
2022/03/15 22:26:03;;;;;;;13.52;9.23;;;9.70;99.90;;;;;;6247206;23;20251;-74
2022/03/15 22:28:32;;;;;;;10.70;8.07;;;9.70;99.90;;;;;;6247660;23;20175;-73
2022/03/15 23:17:12;;;;;;;16.92;7.90;;;10.00;99.90;;;;;;6247352;23;20300;-72
2022/03/15 23:22:36;;;;;;;9.60;8.00;;;9.90;99.90;;;;;;6245312;23;20507;-73
2022/03/15 23:22:38;;;;;;;13.73;9.35;;;10.00;99.90;;;;;;6246271;23;20186;-70
2022/03/15 23:25:07;;;;;;;13.90;8.35;;;10.10;99.90;;;;;;6247690;22;20213;-76
2022/03/15 23:27:38;;;;;;;16.90;10.57;;;10.00;99.90;;;;;;6247602;23;20191;-76
2022/03/15 23:30:07;;;;;;;11.50;7.78;;;10.00;99.90;;;;;;6246524;23;20558;-75
2022/03/15 23:32:35;;;;;;;12.98;8.18;;;10.00;99.90;;;;;;6247069;23;20199;-74
2022/03/15 23:35:05;;;;;;;14.25;8.77;;;10.00;99.90;;;;;;6247170;22;20207;-75
2022/03/15 23:37:32;;;;;;;18.25;10.55;;;10.00;99.90;;;;;;6247319;23;20186;-72
2022/03/15 23:39:59;;;;;;;15.48;10.07;;;10.00;99.90;;;;;;6246152;23;20194;-73
2022/03/15 23:42:26;;;;;;;15.00;9.50;;;9.90;99.90;;;;;;6246770;23;20163;-73
2022/03/15 23:44:53;;;;;;;12.48;9.00;;;9.90;99.90;;;;;;6246821;22;20223;-74
2022/03/15 23:47:20;;;;;;;15.77;10.77;;;9.90;99.90;;;;;;6247044;23;20167;-73
2022/03/15 23:49:49;;;;;;;14.75;9.82;;;9.90;99.90;;;;;;6247420;23;20167;-73
2022/03/15 23:52:16;;;;;;;11.93;9.77;;;9.90;99.90;;;;;;6247449;23;20239;-75
2022/03/15 23:54:44;;;;;;;17.92;11.85;;;9.90;99.90;;;;;;6247173;22;20225;-75
2022/03/15 23:57:12;;;;;;;17.33;10.85;;;9.80;99.90;;;;;;6247029;23;20193;-74
2022/03/15 23:59:39;;;;;;;13.80;10.05;;;9.80;99.90;;;;;;6246865;23;20163;-74
